< < Back
Terminal Aerodrome Forecast


Current Version              Previous Versions:   1  2  3  4  5  6  7  8  9  

Terminal Aerodrome Forecast

817
FTUS42 KFFC 191100
TAFCSG
TAF
KCSG 191120Z 1912/2012 03010G18KT 6SM BR BKN015
     FM191900 04012G21KT P6SM BKN020
     FM200100 04010KT P6SM BKN020=

Latest METAR

769
SAUS70 KWBC 191200 RRA
MTRCSG
METAR KCSG 191151Z AUTO 03010KT 10SM BKN017 OVC029 12/10 A3004 RMK AO2
SLP170 60001 70220 T01220100 10122 20111 53010


USA.gov is the U.S. government's official web portal to all federal, state and local government web resources and services.